Blue Bay — V2CE6 — position and weather

sailwx.info

Track history (hours):
 
Tides and Currents Weather Stations Pressure Air Temp Water Temp Dewpoint Dewpoint Depression Visibility Wind Speed Wind Dir Waves Ship Positions

Blue Bay

Last reported at 2017-Oct-18 04:42 UTC. Time now 2017-Oct-18 07:41 UTC.
Position N 54°50' E 016°40'.

Length 89 m; draft 5 m.

Type: Cargo ship. MMSI: 304519000.

Date/timePositionNaut miles runAvg speedWind from/ knotsBaromVisibWave heightAir tempDewpointWater temp
2017-Oct-18 04:42N 54°50' E 016°40'7 9.6
2017-Oct-18 03:57N 54°51' E 016°53'6 9.6
2017-Oct-18 03:19N 54°52' E 017°03'7 9.7
2017-Oct-18 02:35N 54°54' E 017°15'2 9.6
2017-Oct-18 02:21N 54°55' E 017°19'5 9.5
2017-Oct-18 01:52N 54°55' E 017°27'10 9.7
2017-Oct-18 00:49N 54°55' E 017°45'5 9.8
2017-Oct-18 00:19N 54°55' E 017°53'3 9.8
2017-Oct-18 00:00N 54°55' E 017°59'5 9.7
2017-Oct-17 23:30N 54°55' E 018°07'5 9.5
2017-Oct-17 23:00N 54°55' E 018°15'5 9.5
2017-Oct-17 22:30N 54°54' E 018°23'5 9.6
2017-Oct-17 22:00N 54°53' E 018°31'5 9.9
2017-Oct-17 21:30N 54°51' E 018°39'510.0
2017-Oct-17 21:00N 54°49' E 018°48'510.0
2017-Oct-17 20:30N 54°48' E 018°56'5 9.9
2017-Oct-17 20:00N 54°43' E 018°60'510.2
2017-Oct-17 19:30N 54°39' E 018°57'510.4
2017-Oct-17 19:00N 54°34' E 018°52'5 9.7
2017-Oct-17 18:30N 54°32' E 018°45'5 9.6
2017-Oct-17 18:00N 54°32' E 018°36'2 4.4
2017-Oct-17 17:30N 54°32' E 018°33'0 0.0
2017-Oct-17 17:00N 54°32' E 018°33'0 0.0
2017-Oct-17 16:30N 54°32' E 018°33'0 0.0
2017-Oct-17 16:00N 54°32' E 018°33'0 0.0
2017-Oct-17 15:30N 54°32' E 018°33'0 0.0
2017-Oct-17 15:00N 54°32' E 018°33'0 0.0
2017-Oct-17 14:30N 54°32' E 018°33'0 0.0
2017-Oct-17 14:00N 54°32' E 018°33'0 0.0
2017-Oct-17 13:30N 54°32' E 018°33'0 0.0
2017-Oct-17 12:57N 54°32' E 018°33'0 0.0
2017-Oct-17 12:30N 54°32' E 018°33'0 0.0
2017-Oct-17 12:00N 54°32' E 018°33'0 0.0
2017-Oct-17 11:30N 54°32' E 018°33'0 0.0
2017-Oct-17 11:00N 54°32' E 018°33'0 0.0
2017-Oct-17 10:30N 54°32' E 018°33'0 0.0
2017-Oct-17 10:00N 54°32' E 018°33'0 0.0
2017-Oct-17 09:30N 54°32' E 018°33'0 0.0
2017-Oct-17 09:00N 54°32' E 018°33'0 0.0
2017-Oct-17 08:30N 54°32' E 018°33'0 0.0
2017-Oct-17 08:00N 54°32' E 018°33'0 0.0
2017-Oct-17 07:30N 54°32' E 018°33'0 0.0
2017-Oct-17 07:00N 54°32' E 018°33'0 0.0
2017-Oct-17 06:30N 54°32' E 018°33'0 0.0
2017-Oct-17 06:00N 54°32' E 018°33'0 0.0
2017-Oct-17 05:30N 54°32' E 018°33'0 0.0
2017-Oct-17 05:00N 54°32' E 018°33'0 0.0
2017-Oct-17 04:30N 54°32' E 018°33'0 0.0
2017-Oct-17 04:00N 54°32' E 018°33'0 0.0
2017-Oct-17 03:30N 54°32' E 018°33'0 0.0
2017-Oct-17 03:00N 54°32' E 018°33'0 0.0
2017-Oct-17 02:30N 54°32' E 018°33'0 0.0
2017-Oct-17 02:00N 54°32' E 018°33'0 0.0
2017-Oct-17 01:30N 54°32' E 018°33'0 0.0
2017-Oct-17 01:00N 54°32' E 018°33'0 0.0
2017-Oct-17 00:30N 54°32' E 018°33'0 0.0
2017-Oct-17 00:00N 54°32' E 018°33'0 0.0
2017-Oct-16 23:30N 54°32' E 018°33'0 0.0
2017-Oct-16 23:00N 54°32' E 018°33'0 0.0
2017-Oct-16 22:30N 54°32' E 018°33'0 0.0
2017-Oct-16 22:00N 54°32' E 018°33'0 0.0
2017-Oct-16 21:30N 54°32' E 018°33'0 0.0
2017-Oct-16 21:00N 54°32' E 018°33'0 0.0
2017-Oct-16 20:30N 54°32' E 018°33'0 0.0
2017-Oct-16 20:00N 54°32' E 018°33'0 0.0
2017-Oct-16 19:30N 54°32' E 018°33'0 0.0
2017-Oct-16 19:00N 54°32' E 018°33'0 0.0
2017-Oct-16 18:30N 54°32' E 018°33'0 0.0
2017-Oct-16 18:00N 54°32' E 018°33'0 0.0
2017-Oct-16 17:30N 54°32' E 018°33'0 0.0
2017-Oct-16 17:00N 54°32' E 018°33'0 0.3
2017-Oct-16 16:31N 54°32' E 018°33'3 5.9
2017-Oct-16 16:00N 54°32' E 018°38'5 9.2
2017-Oct-16 15:31N 54°32' E 018°46'510.9
2017-Oct-16 15:00N 54°36' E 018°53'1110.8
2017-Oct-16 14:00N 54°46' E 018°59'611.3
2017-Oct-16 13:30N 54°49' E 018°51'611.5
2017-Oct-16 13:01N 54°53' E 018°43'611.5
2017-Oct-16 12:30N 54°54' E 018°33'611.6
2017-Oct-16 12:01N 54°55' E 018°24'611.5
2017-Oct-16 11:31N 54°56' E 018°14'611.4
2017-Oct-16 11:00N 54°55' E 018°04'811.4
2017-Oct-16 10:18N 54°54' E 017°50'311.5
2017-Oct-16 10:00N 54°54' E 017°44'811.5
2017-Oct-16 09:20N 54°53' E 017°31'411.5
2017-Oct-16 08:58N 54°53' E 017°23'611.5
2017-Oct-16 08:27N 54°52' E 017°13'511.4
2017-Oct-16 08:01N 54°50' E 017°05'611.3
2017-Oct-16 07:26N 54°49' E 016°54'511.3
2017-Oct-16 06:59N 54°48' E 016°45'611.4
2017-Oct-16 06:28N 54°47' E 016°35'711.2
2017-Oct-16 05:50N 54°44' E 016°24'411.3
2017-Oct-16 05:30N 54°42' E 016°18'611.5
2017-Oct-16 05:01N 54°39' E 016°10'1011.5
2017-Oct-16 04:08N 54°34' E 015°55'211.3
2017-Oct-16 04:00N 54°34' E 015°53'811.4
2017-Oct-16 03:16N 54°29' E 015°40'811.3
2017-Oct-16 02:31N 54°25' E 015°28'011.2
2017-Oct-16 02:29N 54°25' E 015°27'56 8.3
2017-Oct-15 19:46N 53°39' E 014°33'410.9
2017-Oct-15 19:24N 53°35' E 014°36'410.0
2017-Oct-15 19:01N 53°32' E 014°38'5 9.1
2017-Oct-15 18:31N 53°27' E 014°36'3 5.4
2017-Oct-15 18:00N 53°25' E 014°36'0 0.1
2017-Oct-15 17:30N 53°25' E 014°36'0 0.0
2017-Oct-15 17:00N 53°25' E 014°36'0 0.0
2017-Oct-15 16:30N 53°25' E 014°36'0 0.0
2017-Oct-15 16:00N 53°25' E 014°36'0 0.0
2017-Oct-15 15:30N 53°25' E 014°36'0 0.0
2017-Oct-15 15:00N 53°25' E 014°36'0 0.0
2017-Oct-15 14:00N 53°25' E 014°36'0 0.0
2017-Oct-15 13:30N 53°25' E 014°36'0 0.0
2017-Oct-15 13:00N 53°25' E 014°36'0 0.0
2017-Oct-15 12:30N 53°25' E 014°36'0 0.0
2017-Oct-15 12:00N 53°25' E 014°36'0 0.0
2017-Oct-15 11:30N 53°25' E 014°36'0 0.0
2017-Oct-15 11:00N 53°25' E 014°36'0 0.0
2017-Oct-15 10:30N 53°25' E 014°36'0 0.0
2017-Oct-15 10:00N 53°25' E 014°36'0 0.0
2017-Oct-15 09:30N 53°25' E 014°36'0 0.0
2017-Oct-15 09:00N 53°25' E 014°36'0 0.0
2017-Oct-15 08:30N 53°25' E 014°36'0 0.0
2017-Oct-15 08:00N 53°25' E 014°36'0 0.0
2017-Oct-15 07:30N 53°25' E 014°36'0 0.0
2017-Oct-15 07:00N 53°25' E 014°36'0 0.0
2017-Oct-15 06:30N 53°25' E 014°36'0 0.0
2017-Oct-15 06:00N 53°25' E 014°36'0 0.0
2017-Oct-15 05:30N 53°25' E 014°36'0 0.0
2017-Oct-15 05:00N 53°25' E 014°36'1 1.2
2017-Oct-15 04:31N 53°25' E 014°37'4 8.0
2017-Oct-15 04:01N 53°29' E 014°37'4 8.8
2017-Oct-15 03:31N 53°33' E 014°36'61 8.4
2017-Oct-14 20:12N 54°28' E 013°49'2010.7
2017-Oct-14 18:19N 54°46' E 013°33'2410.5
2017-Oct-14 16:04N 55°07' E 013°13'310.7
2017-Oct-14 15:49N 55°08' E 013°09'310.6
2017-Oct-14 15:30N 55°10' E 013°04'510.7
2017-Oct-14 15:00N 55°13' E 012°56'510.8
2017-Oct-14 14:30N 55°15' E 012°48'611.0
2017-Oct-14 14:00N 55°18' E 012°39'510.4
2017-Oct-14 13:30N 55°23' E 012°39'510.6
2017-Oct-14 13:00N 55°28' E 012°41'510.9
2017-Oct-14 12:31N 55°34' E 012°42'611.5
2017-Oct-14 12:01N 55°39' E 012°41'611.2
2017-Oct-14 11:31N 55°45' E 012°41'510.9
2017-Oct-14 11:01N 55°51' E 012°40'611.3
2017-Oct-14 10:31N 55°56' E 012°37'510.7
2017-Oct-14 10:01N 56°01' E 012°38'510.3
2017-Oct-14 09:31N 56°06' E 012°34'510.8
2017-Oct-14 09:01N 56°09' E 012°26'510.7
2017-Oct-14 08:31N 56°12' E 012°18'5410.5
2017-Oct-14 03:23N 57°02' E 011°40'411.1
2017-Oct-14 03:00N 57°06' E 011°38'510.8
2017-Oct-14 02:30N 57°11' E 011°34'510.8
2017-Oct-14 02:00N 57°16' E 011°31'611.0
2017-Oct-14 01:30N 57°21' E 011°27'511.0
2017-Oct-14 01:00N 57°26' E 011°24'510.8
2017-Oct-14 00:30N 57°30' E 011°17'610.8
2017-Oct-14 00:00N 57°34' E 011°10'611.3
2017-Oct-13 23:30N 57°38' E 011°02'611.5
2017-Oct-13 23:01N 57°42' E 010°55'611.2
2017-Oct-13 22:30N 57°46' E 010°47'611.7
2017-Oct-13 22:00N 57°48' E 010°37'611.5
2017-Oct-13 21:30N 57°48' E 010°26'610.8
2017-Oct-13 21:00N 57°48' E 010°16'6011.2
2017-Oct-13 15:40N 57°52' E 008°24'210.2
2017-Oct-13 15:30N 57°53' E 008°21'510.1
2017-Oct-13 15:00N 57°53' E 008°11'510.1
2017-Oct-13 14:30N 57°53' E 008°02'5 9.9
2017-Oct-13 14:00N 57°53' E 007°52'5 9.7
2017-Oct-13 13:30N 57°54' E 007°43'5 9.6
2017-Oct-13 13:00N 57°54' E 007°34'5 9.7
2017-Oct-13 12:31N 57°54' E 007°25'510.2
2017-Oct-13 12:00N 57°54' E 007°16'510.0
2017-Oct-13 11:30N 57°54' E 007°06'5 9.8
2017-Oct-13 11:01N 57°54' E 006°57'5 9.8
2017-Oct-13 10:31N 57°55' E 006°48'5 9.9
2017-Oct-13 10:01N 57°55' E 006°39'5 9.5
2017-Oct-13 09:30N 57°56' E 006°30'510.3
2017-Oct-13 09:00N 57°59' E 006°23'510.2
2017-Oct-13 08:30N 58°03' E 006°15'510.1
2017-Oct-13 08:00N 58°06' E 006°08'5 9.7
2017-Oct-13 07:30N 58°09' E 006°01'5 9.4
2017-Oct-13 06:59N 58°12' E 005°54'4 9.1
2017-Oct-13 06:30N 58°15' E 005°47'5 9.2
2017-Oct-13 06:00N 58°18' E 005°40'5 9.2
2017-Oct-13 05:30N 58°21' E 005°34'5 9.6
2017-Oct-13 04:59N 58°24' E 005°26'5 9.6
2017-Oct-13 04:30N 58°28' E 005°24'5 9.4
2017-Oct-13 04:01N 58°33' E 005°23'5 9.1
2017-Oct-13 03:31N 58°38' E 005°21'4 8.8
2017-Oct-13 03:01N 58°42' E 005°19'4 8.7
2017-Oct-13 02:31N 58°46' E 005°22'5 9.3
2017-Oct-13 02:01N 58°50' E 005°26'5 9.4
2017-Oct-13 01:31N 58°54' E 005°32'5 9.9
2017-Oct-13 01:01N 58°59' E 005°33'510.2
2017-Oct-13 00:31N 59°04' E 005°33'5 9.9
2017-Oct-13 00:00N 59°09' E 005°33'5 9.4
2017-Oct-12 23:30N 59°13' E 005°38'5 9.8
2017-Oct-12 23:00N 59°16' E 005°45'510.7
2017-Oct-12 22:30N 59°19' E 005°53'610.8
2017-Oct-12 21:58N 59°23' E 006°02'4 9.1
2017-Oct-12 21:30N 59°25' E 006°09'510.5
2017-Oct-12 21:00N 59°30' E 006°15'510.5
2017-Oct-12 20:30N 59°35' E 006°19'4 8.8
2017-Oct-12 20:00N 59°39' E 006°22'0 0.1
2017-Oct-12 19:30N 59°39' E 006°22'0 0.0
2017-Oct-12 19:00N 59°39' E 006°22'0 0.0
2017-Oct-12 18:30N 59°39' E 006°22'0 0.0
2017-Oct-12 18:00N 59°39' E 006°22'0 0.0
2017-Oct-12 17:29N 59°39' E 006°22'0 0.0
2017-Oct-12 17:00N 59°39' E 006°22'0 0.0
2017-Oct-12 16:24N 59°39' E 006°22'0 0.0
2017-Oct-12 16:00N 59°39' E 006°22'0 0.0
2017-Oct-12 15:30N 59°39' E 006°22'0 0.0
2017-Oct-12 15:00N 59°39' E 006°22'0 0.0
2017-Oct-12 14:30N 59°39' E 006°22'0 0.0
2017-Oct-12 14:00N 59°39' E 006°22'0 0.0
2017-Oct-12 13:30N 59°39' E 006°22'0 0.0
2017-Oct-12 13:00N 59°39' E 006°22'0 0.0
2017-Oct-12 12:30N 59°39' E 006°22'0 0.0
2017-Oct-12 12:00N 59°39' E 006°22'0 0.0
2017-Oct-12 11:30N 59°39' E 006°22'0 0.0
2017-Oct-12 10:59N 59°39' E 006°22'0 0.0
2017-Oct-12 10:30N 59°39' E 006°22'0 0.0
2017-Oct-12 10:00N 59°39' E 006°22'0 0.0
2017-Oct-12 09:30N 59°39' E 006°22'0 0.0
2017-Oct-12 09:00N 59°39' E 006°22'0 0.0
2017-Oct-12 08:30N 59°39' E 006°22'0 0.0
2017-Oct-12 08:00N 59°39' E 006°22'0 0.0
2017-Oct-12 07:30N 59°39' E 006°22'0 0.0
2017-Oct-12 07:00N 59°39' E 006°22'0 0.3
2017-Oct-12 06:30N 59°39' E 006°21'0 0.0
2017-Oct-12 06:00N 59°39' E 006°21'0 0.0
2017-Oct-12 05:30N 59°39' E 006°21'0 0.0
2017-Oct-12 05:00N 59°39' E 006°21'0 0.0
2017-Oct-12 04:30N 59°39' E 006°21'0 0.0
2017-Oct-12 04:00N 59°39' E 006°21'0 0.0
2017-Oct-12 03:30N 59°39' E 006°21'0 0.0
2017-Oct-12 03:00N 59°39' E 006°21'0 0.2
2017-Oct-12 02:30N 59°39' E 006°21'3 6.8
2017-Oct-12 02:00N 59°36' E 006°19'611.0
2017-Oct-12 01:30N 59°30' E 006°15'510.8
2017-Oct-12 01:00N 59°26' E 006°10'5 9.6
2017-Oct-12 00:30N 59°23' E 006°02'510.1
2017-Oct-12 00:00N 59°20' E 005°54'611.9
2017-Oct-11 23:30N 59°16' E 005°44'611.8
2017-Oct-11 23:01N 59°12' E 005°37'611.3
2017-Oct-11 22:30N 59°07' E 005°32'510.7
2017-Oct-11 22:00N 59°02' E 005°33'510.4
2017-Oct-11 21:31N 58°56' E 005°33'510.1
2017-Oct-11 21:00N 58°51' E 005°31'5 9.0
2017-Oct-11 20:30N 58°51' E 005°22'4 8.5
2017-Oct-11 20:01N 58°52' E 005°14'3 6.0
2017-Oct-11 19:30N 58°49' E 005°14'3 6.8
2017-Oct-11 19:01N 58°45' E 005°16'3 6.7
2017-Oct-11 18:30N 58°42' E 005°17'4 7.1
2017-Oct-11 18:00N 58°39' E 005°18'611.9
2017-Oct-11 17:30N 58°33' E 005°21'510.4
2017-Oct-11 17:00N 58°28' E 005°25'94 5.5
2017-Oct-11 00:01N 58°15' E 008°23'0 0.0
2017-Oct-10 23:31N 58°15' E 008°23'0 0.0
2017-Oct-10 23:01N 58°15' E 008°23'0 0.0
2017-Oct-10 22:31N 58°15' E 008°23'0 0.0
2017-Oct-10 22:01N 58°15' E 008°23'0 0.0
2017-Oct-10 21:31N 58°15' E 008°23'0 0.0
2017-Oct-10 21:01N 58°15' E 008°23'0 0.0
2017-Oct-10 20:31N 58°15' E 008°23'0 0.0
2017-Oct-10 20:01N 58°15' E 008°23'0 0.0
2017-Oct-10 19:31N 58°15' E 008°23'0 0.0
2017-Oct-10 19:01N 58°15' E 008°23'0 0.0
2017-Oct-10 18:30N 58°15' E 008°23'0 0.0
2017-Oct-10 18:01N 58°15' E 008°23'0 0.0
2017-Oct-10 17:30N 58°15' E 008°23'0 0.0
2017-Oct-10 17:00N 58°15' E 008°23'0 0.0
2017-Oct-10 16:27N 58°15' E 008°23'0 0.0
2017-Oct-10 16:01N 58°15' E 008°23'0 0.0
2017-Oct-10 15:27N 58°15' E 008°23'0 0.0
2017-Oct-10 15:00N 58°15' E 008°23'0 0.0
2017-Oct-10 14:00N 58°15' E 008°23'0 0.0
2017-Oct-10 13:31N 58°15' E 008°23'0 0.0
2017-Oct-10 12:57N 58°15' E 008°23'0 0.0
2017-Oct-10 12:30N 58°15' E 008°23'0 0.0
2017-Oct-10 12:00N 58°15' E 008°23'0 0.0
2017-Oct-10 11:30N 58°15' E 008°23'0 0.0
2017-Oct-10 11:00N 58°15' E 008°23'0 0.0
2017-Oct-10 10:30N 58°15' E 008°23'0 0.0
2017-Oct-10 10:00N 58°15' E 008°23'0 0.0
2017-Oct-10 09:30N 58°15' E 008°23'0 0.0
2017-Oct-10 09:00N 58°15' E 008°23'0 0.0
2017-Oct-10 08:30N 58°15' E 008°23'0 0.0
2017-Oct-10 08:00N 58°15' E 008°23'0 0.0
2017-Oct-10 07:30N 58°15' E 008°23'0 0.0
2017-Oct-10 07:00N 58°15' E 008°23'0 0.0
2017-Oct-10 06:30N 58°15' E 008°23'0 0.0
2017-Oct-10 06:00N 58°15' E 008°23'0 0.0
2017-Oct-10 05:30N 58°15' E 008°23'0 0.0
2017-Oct-10 05:00N 58°15' E 008°23'0 0.0
2017-Oct-10 04:30N 58°15' E 008°23'0 0.0
2017-Oct-10 04:00N 58°15' E 008°23'0 0.0
2017-Oct-10 03:30N 58°15' E 008°23'0 0.0
2017-Oct-10 03:00N 58°15' E 008°23'0 0.0
2017-Oct-10 02:30N 58°15' E 008°23'0 0.0
2017-Oct-10 02:00N 58°15' E 008°23'0 0.0
2017-Oct-10 01:30N 58°15' E 008°23'0 0.0
2017-Oct-10 01:00N 58°15' E 008°23'0 0.0
2017-Oct-10 00:30N 58°15' E 008°23'0 0.0
2017-Oct-10 00:00N 58°15' E 008°23'0 0.0
2017-Oct-09 23:30N 58°15' E 008°23'0 0.0
2017-Oct-09 23:00N 58°15' E 008°23'0 0.0
2017-Oct-09 22:30N 58°15' E 008°23'0 0.0
2017-Oct-09 22:00N 58°15' E 008°23'0 0.0
2017-Oct-09 21:30N 58°15' E 008°23'0 0.0
2017-Oct-09 21:00N 58°15' E 008°23'0 0.0
2017-Oct-09 20:30N 58°15' E 008°23'0 0.0
2017-Oct-09 20:00N 58°15' E 008°23'0 0.0
2017-Oct-09 19:30N 58°15' E 008°23'0 0.0
2017-Oct-09 19:00N 58°15' E 008°23'0 0.0
2017-Oct-09 18:30N 58°15' E 008°23'0 0.0
2017-Oct-09 18:00N 58°15' E 008°23'0 0.0
2017-Oct-09 17:30N 58°15' E 008°23'0 0.0
2017-Oct-09 17:00N 58°15' E 008°23'0 0.0
2017-Oct-09 16:30N 58°15' E 008°23'0 0.0
2017-Oct-09 16:00N 58°15' E 008°23'0 0.0
2017-Oct-09 15:30N 58°15' E 008°23'0 0.0
2017-Oct-09 15:00N 58°15' E 008°23'0 0.0
2017-Oct-09 14:30N 58°15' E 008°23'0 0.0
2017-Oct-09 14:00N 58°15' E 008°23'0 0.0
2017-Oct-09 13:30N 58°15' E 008°23'0 0.0
2017-Oct-09 13:00N 58°15' E 008°23'0 0.0
2017-Oct-09 12:30N 58°15' E 008°23'0 0.0
2017-Oct-09 12:00N 58°15' E 008°23'0 0.0
2017-Oct-09 11:30N 58°15' E 008°23'0 0.0
2017-Oct-09 11:00N 58°15' E 008°23'0 0.9
2017-Oct-09 10:30N 58°14' E 008°23'4 7.5
2017-Oct-09 10:00N 58°11' E 008°26'4 8.8
2017-Oct-09 09:30N 58°07' E 008°22'4 8.2
2017-Oct-09 09:00N 58°05' E 008°15'4 8.3
2017-Oct-09 08:30N 58°04' E 008°08'4 8.4
2017-Oct-09 08:00N 58°01' E 008°02'4 8.7
2017-Oct-09 07:30N 57°58' E 007°56'4 8.1
2017-Oct-09 06:59N 57°55' E 007°51'4 7.7
2017-Oct-09 06:30N 57°53' E 007°46'4 8.1
2017-Oct-09 06:00N 57°49' E 007°41'4 8.4
2017-Oct-09 05:29N 57°45' E 007°38'  
Track history (hours):
 
Tides and Currents Weather Stations Pressure Air Temp Water Temp Dewpoint Dewpoint Depression Visibility Wind Speed Wind Dir Waves Ship Positions

Blue Bay

Last reported at 2017-Oct-18 04:42 UTC. Time now 2017-Oct-18 07:41 UTC.
Position N 54°50' E 016°40'.

Length 89 m; draft 5 m.

Type: Cargo ship. MMSI: 304519000.

Date/timePositionNaut miles runAvg speedWind from/ knotsBaromVisibWave heightAir tempDewpointWater temp
2017-Oct-18 04:42N 54°50' E 016°40'7 9.6
2017-Oct-18 03:57N 54°51' E 016°53'6 9.6
2017-Oct-18 03:19N 54°52' E 017°03'7 9.7
2017-Oct-18 02:35N 54°54' E 017°15'2 9.6
2017-Oct-18 02:21N 54°55' E 017°19'5 9.5
2017-Oct-18 01:52N 54°55' E 017°27'10 9.7
2017-Oct-18 00:49N 54°55' E 017°45'5 9.8
2017-Oct-18 00:19N 54°55' E 017°53'3 9.8
2017-Oct-18 00:00N 54°55' E 017°59'5 9.7
2017-Oct-17 23:30N 54°55' E 018°07'5 9.5
2017-Oct-17 23:00N 54°55' E 018°15'5 9.5
2017-Oct-17 22:30N 54°54' E 018°23'5 9.6
2017-Oct-17 22:00N 54°53' E 018°31'5 9.9
2017-Oct-17 21:30N 54°51' E 018°39'510.0
2017-Oct-17 21:00N 54°49' E 018°48'510.0
2017-Oct-17 20:30N 54°48' E 018°56'5 9.9
2017-Oct-17 20:00N 54°43' E 018°60'510.2
2017-Oct-17 19:30N 54°39' E 018°57'510.4
2017-Oct-17 19:00N 54°34' E 018°52'5 9.7
2017-Oct-17 18:30N 54°32' E 018°45'5 9.6
2017-Oct-17 18:00N 54°32' E 018°36'2 4.4
2017-Oct-17 17:30N 54°32' E 018°33'0 0.0
2017-Oct-17 17:00N 54°32' E 018°33'0 0.0
2017-Oct-17 16:30N 54°32' E 018°33'0 0.0
2017-Oct-17 16:00N 54°32' E 018°33'0 0.0
2017-Oct-17 15:30N 54°32' E 018°33'0 0.0
2017-Oct-17 15:00N 54°32' E 018°33'0 0.0
2017-Oct-17 14:30N 54°32' E 018°33'0 0.0
2017-Oct-17 14:00N 54°32' E 018°33'0 0.0
2017-Oct-17 13:30N 54°32' E 018°33'0 0.0
2017-Oct-17 12:57N 54°32' E 018°33'0 0.0
2017-Oct-17 12:30N 54°32' E 018°33'0 0.0
2017-Oct-17 12:00N 54°32' E 018°33'0 0.0
2017-Oct-17 11:30N 54°32' E 018°33'0 0.0
2017-Oct-17 11:00N 54°32' E 018°33'0 0.0
2017-Oct-17 10:30N 54°32' E 018°33'0 0.0
2017-Oct-17 10:00N 54°32' E 018°33'0 0.0
2017-Oct-17 09:30N 54°32' E 018°33'0 0.0
2017-Oct-17 09:00N 54°32' E 018°33'0 0.0
2017-Oct-17 08:30N 54°32' E 018°33'0 0.0
2017-Oct-17 08:00N 54°32' E 018°33'0 0.0
2017-Oct-17 07:30N 54°32' E 018°33'0 0.0
2017-Oct-17 07:00N 54°32' E 018°33'0 0.0
2017-Oct-17 06:30N 54°32' E 018°33'0 0.0
2017-Oct-17 06:00N 54°32' E 018°33'0 0.0
2017-Oct-17 05:30N 54°32' E 018°33'0 0.0
2017-Oct-17 05:00N 54°32' E 018°33'0 0.0
2017-Oct-17 04:30N 54°32' E 018°33'0 0.0
2017-Oct-17 04:00N 54°32' E 018°33'0 0.0
2017-Oct-17 03:30N 54°32' E 018°33'0 0.0
2017-Oct-17 03:00N 54°32' E 018°33'0 0.0
2017-Oct-17 02:30N 54°32' E 018°33'0 0.0
2017-Oct-17 02:00N 54°32' E 018°33'0 0.0
2017-Oct-17 01:30N 54°32' E 018°33'0 0.0
2017-Oct-17 01:00N 54°32' E 018°33'0 0.0
2017-Oct-17 00:30N 54°32' E 018°33'0 0.0
2017-Oct-17 00:00N 54°32' E 018°33'0 0.0
2017-Oct-16 23:30N 54°32' E 018°33'0 0.0
2017-Oct-16 23:00N 54°32' E 018°33'0 0.0
2017-Oct-16 22:30N 54°32' E 018°33'0 0.0
2017-Oct-16 22:00N 54°32' E 018°33'0 0.0
2017-Oct-16 21:30N 54°32' E 018°33'0 0.0
2017-Oct-16 21:00N 54°32' E 018°33'0 0.0
2017-Oct-16 20:30N 54°32' E 018°33'0 0.0
2017-Oct-16 20:00N 54°32' E 018°33'0 0.0
2017-Oct-16 19:30N 54°32' E 018°33'0 0.0
2017-Oct-16 19:00N 54°32' E 018°33'0 0.0
2017-Oct-16 18:30N 54°32' E 018°33'0 0.0
2017-Oct-16 18:00N 54°32' E 018°33'0 0.0
2017-Oct-16 17:30N 54°32' E 018°33'0 0.0
2017-Oct-16 17:00N 54°32' E 018°33'0 0.3
2017-Oct-16 16:31N 54°32' E 018°33'3 5.9
2017-Oct-16 16:00N 54°32' E 018°38'5 9.2
2017-Oct-16 15:31N 54°32' E 018°46'510.9
2017-Oct-16 15:00N 54°36' E 018°53'1110.8
2017-Oct-16 14:00N 54°46' E 018°59'611.3
2017-Oct-16 13:30N 54°49' E 018°51'611.5
2017-Oct-16 13:01N 54°53' E 018°43'611.5
2017-Oct-16 12:30N 54°54' E 018°33'611.6
2017-Oct-16 12:01N 54°55' E 018°24'611.5
2017-Oct-16 11:31N 54°56' E 018°14'611.4
2017-Oct-16 11:00N 54°55' E 018°04'811.4
2017-Oct-16 10:18N 54°54' E 017°50'311.5
2017-Oct-16 10:00N 54°54' E 017°44'811.5
2017-Oct-16 09:20N 54°53' E 017°31'411.5
2017-Oct-16 08:58N 54°53' E 017°23'611.5
2017-Oct-16 08:27N 54°52' E 017°13'511.4
2017-Oct-16 08:01N 54°50' E 017°05'611.3
2017-Oct-16 07:26N 54°49' E 016°54'511.3
2017-Oct-16 06:59N 54°48' E 016°45'611.4
2017-Oct-16 06:28N 54°47' E 016°35'711.2
2017-Oct-16 05:50N 54°44' E 016°24'411.3
2017-Oct-16 05:30N 54°42' E 016°18'611.5
2017-Oct-16 05:01N 54°39' E 016°10'1011.5
2017-Oct-16 04:08N 54°34' E 015°55'211.3
2017-Oct-16 04:00N 54°34' E 015°53'811.4
2017-Oct-16 03:16N 54°29' E 015°40'811.3
2017-Oct-16 02:31N 54°25' E 015°28'011.2
2017-Oct-16 02:29N 54°25' E 015°27'56 8.3
2017-Oct-15 19:46N 53°39' E 014°33'410.9
2017-Oct-15 19:24N 53°35' E 014°36'410.0
2017-Oct-15 19:01N 53°32' E 014°38'5 9.1
2017-Oct-15 18:31N 53°27' E 014°36'3 5.4
2017-Oct-15 18:00N 53°25' E 014°36'0 0.1
2017-Oct-15 17:30N 53°25' E 014°36'0 0.0
2017-Oct-15 17:00N 53°25' E 014°36'0 0.0
2017-Oct-15 16:30N 53°25' E 014°36'0 0.0
2017-Oct-15 16:00N 53°25' E 014°36'0 0.0
2017-Oct-15 15:30N 53°25' E 014°36'0 0.0
2017-Oct-15 15:00N 53°25' E 014°36'0 0.0
2017-Oct-15 14:00N 53°25' E 014°36'0 0.0
2017-Oct-15 13:30N 53°25' E 014°36'0 0.0
2017-Oct-15 13:00N 53°25' E 014°36'0 0.0
2017-Oct-15 12:30N 53°25' E 014°36'0 0.0
2017-Oct-15 12:00N 53°25' E 014°36'0 0.0
2017-Oct-15 11:30N 53°25' E 014°36'0 0.0
2017-Oct-15 11:00N 53°25' E 014°36'0 0.0
2017-Oct-15 10:30N 53°25' E 014°36'0 0.0
2017-Oct-15 10:00N 53°25' E 014°36'0 0.0
2017-Oct-15 09:30N 53°25' E 014°36'0 0.0
2017-Oct-15 09:00N 53°25' E 014°36'0 0.0
2017-Oct-15 08:30N 53°25' E 014°36'0 0.0
2017-Oct-15 08:00N 53°25' E 014°36'0 0.0
2017-Oct-15 07:30N 53°25' E 014°36'0 0.0
2017-Oct-15 07:00N 53°25' E 014°36'0 0.0
2017-Oct-15 06:30N 53°25' E 014°36'0 0.0
2017-Oct-15 06:00N 53°25' E 014°36'0 0.0
2017-Oct-15 05:30N 53°25' E 014°36'0 0.0
2017-Oct-15 05:00N 53°25' E 014°36'1 1.2
2017-Oct-15 04:31N 53°25' E 014°37'4 8.0
2017-Oct-15 04:01N 53°29' E 014°37'4 8.8
2017-Oct-15 03:31N 53°33' E 014°36'61 8.4
2017-Oct-14 20:12N 54°28' E 013°49'2010.7
2017-Oct-14 18:19N 54°46' E 013°33'2410.5
2017-Oct-14 16:04N 55°07' E 013°13'310.7
2017-Oct-14 15:49N 55°08' E 013°09'310.6
2017-Oct-14 15:30N 55°10' E 013°04'510.7
2017-Oct-14 15:00N 55°13' E 012°56'510.8
2017-Oct-14 14:30N 55°15' E 012°48'611.0
2017-Oct-14 14:00N 55°18' E 012°39'510.4
2017-Oct-14 13:30N 55°23' E 012°39'510.6
2017-Oct-14 13:00N 55°28' E 012°41'510.9
2017-Oct-14 12:31N 55°34' E 012°42'611.5
2017-Oct-14 12:01N 55°39' E 012°41'611.2
2017-Oct-14 11:31N 55°45' E 012°41'510.9
2017-Oct-14 11:01N 55°51' E 012°40'611.3
2017-Oct-14 10:31N 55°56' E 012°37'510.7
2017-Oct-14 10:01N 56°01' E 012°38'510.3
2017-Oct-14 09:31N 56°06' E 012°34'510.8
2017-Oct-14 09:01N 56°09' E 012°26'510.7
2017-Oct-14 08:31N 56°12' E 012°18'5410.5
2017-Oct-14 03:23N 57°02' E 011°40'411.1
2017-Oct-14 03:00N 57°06' E 011°38'510.8
2017-Oct-14 02:30N 57°11' E 011°34'510.8
2017-Oct-14 02:00N 57°16' E 011°31'611.0
2017-Oct-14 01:30N 57°21' E 011°27'511.0
2017-Oct-14 01:00N 57°26' E 011°24'510.8
2017-Oct-14 00:30N 57°30' E 011°17'610.8
2017-Oct-14 00:00N 57°34' E 011°10'611.3
2017-Oct-13 23:30N 57°38' E 011°02'611.5
2017-Oct-13 23:01N 57°42' E 010°55'611.2
2017-Oct-13 22:30N 57°46' E 010°47'611.7
2017-Oct-13 22:00N 57°48' E 010°37'611.5
2017-Oct-13 21:30N 57°48' E 010°26'610.8
2017-Oct-13 21:00N 57°48' E 010°16'6011.2
2017-Oct-13 15:40N 57°52' E 008°24'210.2
2017-Oct-13 15:30N 57°53' E 008°21'510.1
2017-Oct-13 15:00N 57°53' E 008°11'510.1
2017-Oct-13 14:30N 57°53' E 008°02'5 9.9
2017-Oct-13 14:00N 57°53' E 007°52'5 9.7
2017-Oct-13 13:30N 57°54' E 007°43'5 9.6
2017-Oct-13 13:00N 57°54' E 007°34'5 9.7
2017-Oct-13 12:31N 57°54' E 007°25'510.2
2017-Oct-13 12:00N 57°54' E 007°16'510.0
2017-Oct-13 11:30N 57°54' E 007°06'5 9.8
2017-Oct-13 11:01N 57°54' E 006°57'5 9.8
2017-Oct-13 10:31N 57°55' E 006°48'5 9.9
2017-Oct-13 10:01N 57°55' E 006°39'5 9.5
2017-Oct-13 09:30N 57°56' E 006°30'510.3
2017-Oct-13 09:00N 57°59' E 006°23'510.2
2017-Oct-13 08:30N 58°03' E 006°15'510.1
2017-Oct-13 08:00N 58°06' E 006°08'5 9.7
2017-Oct-13 07:30N 58°09' E 006°01'5 9.4
2017-Oct-13 06:59N 58°12' E 005°54'4 9.1
2017-Oct-13 06:30N 58°15' E 005°47'5 9.2
2017-Oct-13 06:00N 58°18' E 005°40'5 9.2
2017-Oct-13 05:30N 58°21' E 005°34'5 9.6
2017-Oct-13 04:59N 58°24' E 005°26'5 9.6
2017-Oct-13 04:30N 58°28' E 005°24'5 9.4
2017-Oct-13 04:01N 58°33' E 005°23'5 9.1
2017-Oct-13 03:31N 58°38' E 005°21'4 8.8
2017-Oct-13 03:01N 58°42' E 005°19'4 8.7
2017-Oct-13 02:31N 58°46' E 005°22'5 9.3
2017-Oct-13 02:01N 58°50' E 005°26'5 9.4
2017-Oct-13 01:31N 58°54' E 005°32'5 9.9
2017-Oct-13 01:01N 58°59' E 005°33'510.2
2017-Oct-13 00:31N 59°04' E 005°33'5 9.9
2017-Oct-13 00:00N 59°09' E 005°33'5 9.4
2017-Oct-12 23:30N 59°13' E 005°38'5 9.8
2017-Oct-12 23:00N 59°16' E 005°45'510.7
2017-Oct-12 22:30N 59°19' E 005°53'610.8
2017-Oct-12 21:58N 59°23' E 006°02'4 9.1
2017-Oct-12 21:30N 59°25' E 006°09'510.5
2017-Oct-12 21:00N 59°30' E 006°15'510.5
2017-Oct-12 20:30N 59°35' E 006°19'4 8.8
2017-Oct-12 20:00N 59°39' E 006°22'0 0.1
2017-Oct-12 19:30N 59°39' E 006°22'0 0.0
2017-Oct-12 19:00N 59°39' E 006°22'0 0.0
2017-Oct-12 18:30N 59°39' E 006°22'0 0.0
2017-Oct-12 18:00N 59°39' E 006°22'0 0.0
2017-Oct-12 17:29N 59°39' E 006°22'0 0.0
2017-Oct-12 17:00N 59°39' E 006°22'0 0.0
2017-Oct-12 16:24N 59°39' E 006°22'0 0.0
2017-Oct-12 16:00N 59°39' E 006°22'0 0.0
2017-Oct-12 15:30N 59°39' E 006°22'0 0.0
2017-Oct-12 15:00N 59°39' E 006°22'0 0.0
2017-Oct-12 14:30N 59°39' E 006°22'0 0.0
2017-Oct-12 14:00N 59°39' E 006°22'0 0.0
2017-Oct-12 13:30N 59°39' E 006°22'0 0.0
2017-Oct-12 13:00N 59°39' E 006°22'0 0.0
2017-Oct-12 12:30N 59°39' E 006°22'0 0.0
2017-Oct-12 12:00N 59°39' E 006°22'0 0.0
2017-Oct-12 11:30N 59°39' E 006°22'0 0.0
2017-Oct-12 10:59N 59°39' E 006°22'0 0.0
2017-Oct-12 10:30N 59°39' E 006°22'0 0.0
2017-Oct-12 10:00N 59°39' E 006°22'0 0.0
2017-Oct-12 09:30N 59°39' E 006°22'0 0.0
2017-Oct-12 09:00N 59°39' E 006°22'0 0.0
2017-Oct-12 08:30N 59°39' E 006°22'0 0.0
2017-Oct-12 08:00N 59°39' E 006°22'0 0.0
2017-Oct-12 07:30N 59°39' E 006°22'0 0.0
2017-Oct-12 07:00N 59°39' E 006°22'0 0.3
2017-Oct-12 06:30N 59°39' E 006°21'0 0.0
2017-Oct-12 06:00N 59°39' E 006°21'0 0.0
2017-Oct-12 05:30N 59°39' E 006°21'0 0.0
2017-Oct-12 05:00N 59°39' E 006°21'0 0.0
2017-Oct-12 04:30N 59°39' E 006°21'0 0.0
2017-Oct-12 04:00N 59°39' E 006°21'0 0.0
2017-Oct-12 03:30N 59°39' E 006°21'0 0.0
2017-Oct-12 03:00N 59°39' E 006°21'0 0.2
2017-Oct-12 02:30N 59°39' E 006°21'3 6.8
2017-Oct-12 02:00N 59°36' E 006°19'611.0
2017-Oct-12 01:30N 59°30' E 006°15'510.8
2017-Oct-12 01:00N 59°26' E 006°10'5 9.6
2017-Oct-12 00:30N 59°23' E 006°02'510.1
2017-Oct-12 00:00N 59°20' E 005°54'611.9
2017-Oct-11 23:30N 59°16' E 005°44'611.8
2017-Oct-11 23:01N 59°12' E 005°37'611.3
2017-Oct-11 22:30N 59°07' E 005°32'510.7
2017-Oct-11 22:00N 59°02' E 005°33'510.4
2017-Oct-11 21:31N 58°56' E 005°33'510.1
2017-Oct-11 21:00N 58°51' E 005°31'5 9.0
2017-Oct-11 20:30N 58°51' E 005°22'4 8.5
2017-Oct-11 20:01N 58°52' E 005°14'3 6.0
2017-Oct-11 19:30N 58°49' E 005°14'3 6.8
2017-Oct-11 19:01N 58°45' E 005°16'3 6.7
2017-Oct-11 18:30N 58°42' E 005°17'4 7.1
2017-Oct-11 18:00N 58°39' E 005°18'611.9
2017-Oct-11 17:30N 58°33' E 005°21'510.4
2017-Oct-11 17:00N 58°28' E 005°25'94 5.5
2017-Oct-11 00:01N 58°15' E 008°23'0 0.0
2017-Oct-10 23:31N 58°15' E 008°23'0 0.0
2017-Oct-10 23:01N 58°15' E 008°23'0 0.0
2017-Oct-10 22:31N 58°15' E 008°23'0 0.0
2017-Oct-10 22:01N 58°15' E 008°23'0 0.0
2017-Oct-10 21:31N 58°15' E 008°23'0 0.0
2017-Oct-10 21:01N 58°15' E 008°23'0 0.0
2017-Oct-10 20:31N 58°15' E 008°23'0 0.0
2017-Oct-10 20:01N 58°15' E 008°23'0 0.0
2017-Oct-10 19:31N 58°15' E 008°23'0 0.0
2017-Oct-10 19:01N 58°15' E 008°23'0 0.0
2017-Oct-10 18:30N 58°15' E 008°23'0 0.0
2017-Oct-10 18:01N 58°15' E 008°23'0 0.0
2017-Oct-10 17:30N 58°15' E 008°23'0 0.0
2017-Oct-10 17:00N 58°15' E 008°23'0 0.0
2017-Oct-10 16:27N 58°15' E 008°23'0 0.0
2017-Oct-10 16:01N 58°15' E 008°23'0 0.0
2017-Oct-10 15:27N 58°15' E 008°23'0 0.0
2017-Oct-10 15:00N 58°15' E 008°23'0 0.0
2017-Oct-10 14:00N 58°15' E 008°23'0 0.0
2017-Oct-10 13:31N 58°15' E 008°23'0 0.0
2017-Oct-10 12:57N 58°15' E 008°23'0 0.0
2017-Oct-10 12:30N 58°15' E 008°23'0 0.0
2017-Oct-10 12:00N 58°15' E 008°23'0 0.0
2017-Oct-10 11:30N 58°15' E 008°23'0 0.0
2017-Oct-10 11:00N 58°15' E 008°23'0 0.0
2017-Oct-10 10:30N 58°15' E 008°23'0 0.0
2017-Oct-10 10:00N 58°15' E 008°23'0 0.0
2017-Oct-10 09:30N 58°15' E 008°23'0 0.0
2017-Oct-10 09:00N 58°15' E 008°23'0 0.0
2017-Oct-10 08:30N 58°15' E 008°23'0 0.0
2017-Oct-10 08:00N 58°15' E 008°23'0 0.0
2017-Oct-10 07:30N 58°15' E 008°23'0 0.0
2017-Oct-10 07:00N 58°15' E 008°23'0 0.0
2017-Oct-10 06:30N 58°15' E 008°23'0 0.0
2017-Oct-10 06:00N 58°15' E 008°23'0 0.0
2017-Oct-10 05:30N 58°15' E 008°23'0 0.0
2017-Oct-10 05:00N 58°15' E 008°23'0 0.0
2017-Oct-10 04:30N 58°15' E 008°23'0 0.0
2017-Oct-10 04:00N 58°15' E 008°23'0 0.0
2017-Oct-10 03:30N 58°15' E 008°23'0 0.0
2017-Oct-10 03:00N 58°15' E 008°23'0 0.0
2017-Oct-10 02:30N 58°15' E 008°23'0 0.0
2017-Oct-10 02:00N 58°15' E 008°23'0 0.0
2017-Oct-10 01:30N 58°15' E 008°23'0 0.0
2017-Oct-10 01:00N 58°15' E 008°23'0 0.0
2017-Oct-10 00:30N 58°15' E 008°23'0 0.0
2017-Oct-10 00:00N 58°15' E 008°23'0 0.0
2017-Oct-09 23:30N 58°15' E 008°23'0 0.0
2017-Oct-09 23:00N 58°15' E 008°23'0 0.0
2017-Oct-09 22:30N 58°15' E 008°23'0 0.0
2017-Oct-09 22:00N 58°15' E 008°23'0 0.0
2017-Oct-09 21:30N 58°15' E 008°23'0 0.0
2017-Oct-09 21:00N 58°15' E 008°23'0 0.0
2017-Oct-09 20:30N 58°15' E 008°23'0 0.0
2017-Oct-09 20:00N 58°15' E 008°23'0 0.0
2017-Oct-09 19:30N 58°15' E 008°23'0 0.0
2017-Oct-09 19:00N 58°15' E 008°23'0 0.0
2017-Oct-09 18:30N 58°15' E 008°23'0 0.0
2017-Oct-09 18:00N 58°15' E 008°23'0 0.0
2017-Oct-09 17:30N 58°15' E 008°23'0 0.0
2017-Oct-09 17:00N 58°15' E 008°23'0 0.0
2017-Oct-09 16:30N 58°15' E 008°23'0 0.0
2017-Oct-09 16:00N 58°15' E 008°23'0 0.0
2017-Oct-09 15:30N 58°15' E 008°23'0 0.0
2017-Oct-09 15:00N 58°15' E 008°23'0 0.0
2017-Oct-09 14:30N 58°15' E 008°23'0 0.0
2017-Oct-09 14:00N 58°15' E 008°23'0 0.0
2017-Oct-09 13:30N 58°15' E 008°23'0 0.0
2017-Oct-09 13:00N 58°15' E 008°23'0 0.0
2017-Oct-09 12:30N 58°15' E 008°23'0 0.0
2017-Oct-09 12:00N 58°15' E 008°23'0 0.0
2017-Oct-09 11:30N 58°15' E 008°23'0 0.0
2017-Oct-09 11:00N 58°15' E 008°23'0 0.9
2017-Oct-09 10:30N 58°14' E 008°23'4 7.5
2017-Oct-09 10:00N 58°11' E 008°26'4 8.8
2017-Oct-09 09:30N 58°07' E 008°22'4 8.2
2017-Oct-09 09:00N 58°05' E 008°15'4 8.3
2017-Oct-09 08:30N 58°04' E 008°08'4 8.4
2017-Oct-09 08:00N 58°01' E 008°02'4 8.7
2017-Oct-09 07:30N 57°58' E 007°56'4 8.1
2017-Oct-09 06:59N 57°55' E 007°51'4 7.7
2017-Oct-09 06:30N 57°53' E 007°46'4 8.1
2017-Oct-09 06:00N 57°49' E 007°41'4 8.4
2017-Oct-09 05:29N 57°45' E 007°38'  

Dump ship's entire track history